createdAt,value
2019-03-31T00:00:39.705Z,10.90
2019-03-31T00:03:08.254Z,10.20
2019-03-31T00:05:37.428Z,10.37
2019-03-31T00:08:06.190Z,10.90
2019-03-31T00:10:34.833Z,10.37
2019-03-31T00:13:03.052Z,10.40
2019-03-31T00:15:31.671Z,10.17
2019-03-31T00:18:00.249Z,10.20
2019-03-31T00:20:28.801Z,9.17
2019-03-31T00:22:57.051Z,10.80
2019-03-31T00:25:25.264Z,9.50
2019-03-31T00:27:53.520Z,10.57
2019-03-31T00:30:22.065Z,10.70
2019-03-31T00:32:50.641Z,10.33
2019-03-31T00:35:19.188Z,9.87
2019-03-31T00:37:47.836Z,9.47
2019-03-31T00:40:16.448Z,10.30
2019-03-31T00:42:44.696Z,10.53
2019-03-31T00:45:13.388Z,10.00
2019-03-31T00:47:41.969Z,10.53
2019-03-31T00:50:10.589Z,10.37
2019-03-31T00:52:39.162Z,10.43
2019-03-31T00:55:07.850Z,10.13
2019-03-31T00:57:36.088Z,9.23
2019-03-31T01:00:06.512Z,9.00
2019-03-31T01:02:35.229Z,10.20
2019-03-31T01:05:06.117Z,10.33
2019-03-31T01:07:34.632Z,9.30
2019-03-31T01:10:05.084Z,10.30
2019-03-31T01:12:33.792Z,9.97
2019-03-31T01:15:04.326Z,9.67
2019-03-31T01:17:33.540Z,9.43
2019-03-31T01:20:02.293Z,9.13
2019-03-31T01:22:30.941Z,9.97
2019-03-31T01:24:59.552Z,8.93
2019-03-31T01:27:28.297Z,9.63
2019-03-31T01:29:56.849Z,10.23
2019-03-31T01:32:25.999Z,10.70
2019-03-31T01:34:54.417Z,9.83
2019-03-31T01:37:23.037Z,9.87
2019-03-31T01:39:51.963Z,10.13
2019-03-31T01:42:20.583Z,9.47
2019-03-31T01:44:49.288Z,9.90
2019-03-31T01:47:18.116Z,10.57
2019-03-31T01:49:46.758Z,10.33
2019-03-31T01:52:15.315Z,10.37
2019-03-31T01:54:43.894Z,10.60
2019-03-31T01:57:12.447Z,10.13
2019-03-31T01:59:40.697Z,8.83
2019-03-31T02:02:10.965Z,9.20
2019-03-31T02:04:39.545Z,9.27
2019-03-31T02:07:07.838Z,9.17
2019-03-31T02:09:36.089Z,9.40
2019-03-31T02:12:04.381Z,9.70
2019-03-31T02:14:32.954Z,9.10
2019-03-31T02:17:01.493Z,9.07
2019-03-31T02:19:30.133Z,9.13
2019-03-31T02:21:58.389Z,8.87
2019-03-31T02:24:26.942Z,9.93
2019-03-31T02:26:55.194Z,8.87
2019-03-31T02:29:23.734Z,9.63
2019-03-31T02:31:52.386Z,9.43
2019-03-31T02:34:21.002Z,9.00
2019-03-31T02:36:49.575Z,8.83
2019-03-31T02:39:18.139Z,9.27
2019-03-31T02:41:46.690Z,8.77
2019-03-31T02:44:14.917Z,9.83
2019-03-31T02:46:43.488Z,8.70
2019-03-31T02:49:12.034Z,9.30
2019-03-31T02:51:40.885Z,10.10
2019-03-31T02:54:09.552Z,9.13
2019-03-31T02:56:39.878Z,9.57
2019-03-31T02:59:08.694Z,9.53
2019-03-31T03:01:40.310Z,9.07
2019-03-31T03:04:09.306Z,8.97
2019-03-31T03:06:39.090Z,9.43
2019-03-31T03:09:07.778Z,9.33
2019-03-31T03:11:36.092Z,9.20
2019-03-31T03:14:06.675Z,8.77
2019-03-31T03:16:34.933Z,9.00
2019-03-31T03:19:03.545Z,9.10
2019-03-31T03:21:32.117Z,9.47
2019-03-31T03:24:00.675Z,9.43
2019-03-31T03:26:29.256Z,9.80
2019-03-31T03:28:57.474Z,10.50
2019-03-31T03:31:25.726Z,10.03
2019-03-31T03:33:54.297Z,9.83
2019-03-31T03:36:22.848Z,10.10
2019-03-31T03:38:51.490Z,10.40
2019-03-31T03:41:19.705Z,9.87
2019-03-31T03:43:55.635Z,10.90
2019-03-31T03:46:17.995Z,10.63
2019-03-31T03:48:46.375Z,9.33
2019-03-31T03:51:15.163Z,9.40
2019-03-31T03:53:43.778Z,10.03
2019-03-31T03:56:12.356Z,9.60
2019-03-31T03:58:40.974Z,9.47
2019-03-31T04:01:11.330Z,9.23
2019-03-31T04:03:39.880Z,9.40
2019-03-31T04:06:08.128Z,9.03
2019-03-31T04:08:36.354Z,10.13
2019-03-31T04:11:13.414Z,9.83
2019-03-31T04:13:42.036Z,9.97
2019-03-31T04:16:10.662Z,9.87
2019-03-31T04:18:39.220Z,9.33
2019-03-31T04:21:07.860Z,9.30
2019-03-31T04:23:36.109Z,9.77
2019-03-31T04:26:04.644Z,9.47
2019-03-31T04:28:33.223Z,9.80
2019-03-31T04:31:01.922Z,10.37
2019-03-31T04:33:48.434Z,9.70
2019-03-31T04:36:00.675Z,9.50
2019-03-31T04:38:29.254Z,9.20
2019-03-31T04:40:57.481Z,8.67
2019-03-31T04:43:25.712Z,8.90
2019-03-31T04:45:53.939Z,9.17
2019-03-31T04:48:22.190Z,8.50
2019-03-31T04:50:53.365Z,8.90
2019-03-31T04:53:21.932Z,8.97
2019-03-31T04:55:50.169Z,9.53
2019-03-31T04:58:18.385Z,9.43
2019-03-31T05:00:46.636Z,8.77
2019-03-31T05:03:15.188Z,9.60
2019-03-31T05:05:43.757Z,9.30
2019-03-31T05:08:11.972Z,9.63
2019-03-31T05:10:40.216Z,9.87
2019-03-31T05:13:08.442Z,9.27
2019-03-31T05:15:36.694Z,9.57
2019-03-31T05:18:04.937Z,8.93
2019-03-31T05:20:35.616Z,9.60
2019-03-31T05:23:03.926Z,9.73
2019-03-31T05:25:32.140Z,9.67
2019-03-31T05:28:00.393Z,9.80
2019-03-31T05:30:28.609Z,9.43
2019-03-31T05:32:56.852Z,9.43
2019-03-31T05:35:27.107Z,10.10
2019-03-31T05:37:55.306Z,9.90
2019-03-31T05:40:23.848Z,8.60
2019-03-31T05:42:52.090Z,8.40
2019-03-31T05:45:20.313Z,9.10
2019-03-31T05:47:48.561Z,9.60
2019-03-31T05:50:17.137Z,10.10
2019-03-31T05:52:45.359Z,9.40
2019-03-31T05:55:13.600Z,8.57
2019-03-31T05:57:42.150Z,9.80
2019-03-31T06:00:10.675Z,10.53
2019-03-31T06:02:38.898Z,9.40
2019-03-31T06:05:07.217Z,10.33
2019-03-31T06:07:35.444Z,10.07
2019-03-31T06:10:04.835Z,11.53
2019-03-31T06:12:33.401Z,13.07
2019-03-31T06:15:01.955Z,10.57
2019-03-31T06:17:30.533Z,10.60
2019-03-31T06:19:58.744Z,11.07
2019-03-31T06:22:27.001Z,10.40
2019-03-31T06:24:55.547Z,9.27
2019-03-31T06:27:24.121Z,10.80
2019-03-31T06:29:52.669Z,10.90
2019-03-31T06:32:21.399Z,10.80
2019-03-31T06:34:49.561Z,10.60
2019-03-31T06:37:18.119Z,11.43
2019-03-31T06:39:46.346Z,10.77
2019-03-31T06:42:14.923Z,11.67
2019-03-31T06:44:43.479Z,11.97
2019-03-31T06:47:12.030Z,11.73
2019-03-31T06:49:40.695Z,11.97
2019-03-31T06:52:09.249Z,11.87
2019-03-31T06:54:37.824Z,11.93
2019-03-31T06:57:06.382Z,11.47
2019-03-31T06:59:34.944Z,11.67
2019-03-31T07:02:03.667Z,12.80
2019-03-31T07:04:32.324Z,13.73
2019-03-31T07:07:00.878Z,13.30
2019-03-31T07:09:29.138Z,13.17
2019-03-31T07:11:57.353Z,11.83
2019-03-31T07:14:25.951Z,11.93
2019-03-31T07:16:54.511Z,12.77
2019-03-31T07:19:23.083Z,12.67
2019-03-31T07:21:51.632Z,12.07
2019-03-31T07:24:19.885Z,11.57
2019-03-31T07:26:48.433Z,12.60
2019-03-31T07:29:17.482Z,11.57
2019-03-31T07:31:46.041Z,12.30
2019-03-31T07:34:14.621Z,12.50
2019-03-31T07:36:43.164Z,11.50
2019-03-31T07:39:12.049Z,12.83
2019-03-31T07:41:40.454Z,13.23
2019-03-31T07:44:09.113Z,13.17
2019-03-31T07:46:37.333Z,13.20
2019-03-31T07:49:06.072Z,13.17
2019-03-31T07:51:37.451Z,13.30
2019-03-31T07:54:05.004Z,11.47
2019-03-31T07:56:33.817Z,13.73
2019-03-31T07:59:02.408Z,12.70
2019-03-31T08:01:30.946Z,13.80
2019-03-31T08:03:59.521Z,14.83
2019-03-31T08:06:29.614Z,14.60
2019-03-31T08:08:57.864Z,14.17
2019-03-31T08:11:26.090Z,13.63
2019-03-31T08:13:57.413Z,14.53
2019-03-31T08:16:25.965Z,13.87
2019-03-31T08:18:54.560Z,14.53
2019-03-31T08:21:23.106Z,14.90
2019-03-31T08:23:51.682Z,15.93
2019-03-31T08:26:20.234Z,15.50
2019-03-31T08:28:50.220Z,15.80
2019-03-31T08:31:21.710Z,15.00
2019-03-31T08:33:50.288Z,15.70
2019-03-31T08:36:18.843Z,15.83
2019-03-31T08:38:47.429Z,15.67
2019-03-31T08:41:15.986Z,16.23
2019-03-31T08:43:44.573Z,15.30
2019-03-31T08:46:13.117Z,16.27
2019-03-31T08:48:41.706Z,16.33
2019-03-31T08:51:10.253Z,16.80
2019-03-31T08:53:38.846Z,16.87
2019-03-31T08:56:08.891Z,16.40
2019-03-31T08:58:37.580Z,16.27
2019-03-31T09:01:09.877Z,16.67
2019-03-31T09:03:38.189Z,16.43
2019-03-31T09:06:06.926Z,16.10
2019-03-31T09:08:35.468Z,15.87
2019-03-31T09:11:04.130Z,15.83
2019-03-31T09:13:34.225Z,16.37
2019-03-31T09:16:06.927Z,17.70
2019-03-31T09:18:32.803Z,17.57
2019-03-31T09:21:01.484Z,16.47
2019-03-31T09:23:30.038Z,16.80
2019-03-31T09:25:58.711Z,15.93
2019-03-31T09:28:27.572Z,16.47
2019-03-31T09:30:56.183Z,16.50
2019-03-31T09:33:24.733Z,16.30
2019-03-31T09:35:53.308Z,17.73
2019-03-31T09:38:21.866Z,17.10
2019-03-31T09:40:50.527Z,16.33
2019-03-31T09:43:18.737Z,17.13
2019-03-31T09:45:47.322Z,17.70
2019-03-31T09:48:15.878Z,15.33
2019-03-31T09:50:44.458Z,16.20
2019-03-31T09:53:13.106Z,17.00
2019-03-31T09:55:41.677Z,17.23
2019-03-31T09:58:10.224Z,16.87
2019-03-31T10:00:47.327Z,15.97
2019-03-31T10:03:16.521Z,17.67
2019-03-31T10:05:48.025Z,17.13
2019-03-31T10:08:15.584Z,17.53
2019-03-31T10:10:44.352Z,17.90
2019-03-31T10:13:12.941Z,17.63
2019-03-31T10:15:41.602Z,17.17
2019-03-31T10:18:11.045Z,16.90
2019-03-31T10:20:39.693Z,15.23
2019-03-31T10:23:08.246Z,15.87
2019-03-31T10:25:36.821Z,16.70
2019-03-31T10:28:05.390Z,17.40
2019-03-31T10:30:48.985Z,16.80
2019-03-31T10:33:09.184Z,17.03
2019-03-31T10:35:37.941Z,15.80
2019-03-31T10:38:07.246Z,17.03
2019-03-31T10:40:35.908Z,15.10
2019-03-31T10:43:04.598Z,14.17
2019-03-31T10:45:33.186Z,13.70
2019-03-31T10:48:19.170Z,12.17
2019-03-31T10:50:35.328Z,11.53
2019-03-31T10:53:03.963Z,12.30
2019-03-31T10:55:32.600Z,11.83
2019-03-31T10:58:01.171Z,11.60
2019-03-31T11:00:37.697Z,13.43
2019-03-31T11:03:07.694Z,11.27
2019-03-31T11:05:36.922Z,11.00
2019-03-31T11:08:05.718Z,10.57
2019-03-31T11:10:34.845Z,10.93
2019-03-31T11:13:03.770Z,12.33
2019-03-31T11:15:32.094Z,11.60
2019-03-31T11:18:00.324Z,11.83
2019-03-31T11:20:28.909Z,10.53
2019-03-31T11:23:09.273Z,11.37
2019-03-31T11:25:37.854Z,11.03
2019-03-31T11:28:07.734Z,11.50
2019-03-31T11:30:36.706Z,10.87
2019-03-31T11:33:07.695Z,10.53
2019-03-31T11:35:42.277Z,10.73
2019-03-31T11:38:10.505Z,11.30
2019-03-31T11:40:39.098Z,11.20
2019-03-31T11:43:07.726Z,10.30
2019-03-31T11:45:36.339Z,9.90
2019-03-31T11:48:05.017Z,10.07
2019-03-31T11:50:33.656Z,8.93
2019-03-31T11:53:02.007Z,7.53
2019-03-31T11:55:30.959Z,7.20
2019-03-31T11:58:01.092Z,7.80
2019-03-31T12:00:32.617Z,7.10
2019-03-31T12:03:01.443Z,7.30
2019-03-31T12:08:18.896Z,8.73
2019-03-31T12:10:50.650Z,9.53
2019-03-31T12:13:19.235Z,9.43
2019-03-31T12:15:50.952Z,7.87
2019-03-31T12:18:19.635Z,8.17
2019-03-31T12:20:47.886Z,8.37
2019-03-31T12:23:16.442Z,9.27
2019-03-31T12:25:45.027Z,9.10
2019-03-31T12:28:17.560Z,7.90
2019-03-31T12:30:46.150Z,8.90
2019-03-31T12:33:14.769Z,8.33
2019-03-31T12:35:43.354Z,8.73
2019-03-31T12:38:11.588Z,7.80
2019-03-31T12:40:41.210Z,8.73
2019-03-31T12:43:09.798Z,8.57
2019-03-31T12:45:38.425Z,8.77
2019-03-31T12:48:07.145Z,9.77
2019-03-31T12:50:35.696Z,8.47
2019-03-31T12:53:04.618Z,9.37
2019-03-31T12:55:33.161Z,8.63
2019-03-31T12:58:01.736Z,8.00
2019-03-31T13:00:30.290Z,8.43
2019-03-31T13:02:58.868Z,7.53
2019-03-31T13:05:27.412Z,8.27
2019-03-31T13:07:56.928Z,8.07
2019-03-31T13:10:25.662Z,8.30
2019-03-31T13:12:54.253Z,9.13
2019-03-31T13:15:22.788Z,7.67
2019-03-31T13:17:51.546Z,8.03
2019-03-31T13:20:20.167Z,8.30
2019-03-31T13:22:48.814Z,8.10
2019-03-31T13:25:17.370Z,8.10
2019-03-31T13:27:45.948Z,8.13
2019-03-31T13:30:15.043Z,8.03
2019-03-31T13:32:43.900Z,15.13
2019-03-31T13:35:12.518Z,9.73
2019-03-31T13:37:41.098Z,7.80
2019-03-31T13:40:09.792Z,7.73
2019-03-31T13:42:38.373Z,8.30
2019-03-31T13:45:08.061Z,7.20
2019-03-31T13:47:36.651Z,7.47
2019-03-31T13:50:07.346Z,7.43
2019-03-31T13:52:37.542Z,7.63
2019-03-31T13:55:07.702Z,7.07
2019-03-31T13:57:44.173Z,7.97
2019-03-31T14:00:09.476Z,7.53
2019-03-31T14:02:40.658Z,7.53
2019-03-31T14:05:13.775Z,7.10
2019-03-31T14:07:43.560Z,7.23
2019-03-31T14:10:12.477Z,7.20
2019-03-31T14:12:43.938Z,7.50
2019-03-31T14:15:19.539Z,6.83
2019-03-31T14:17:44.342Z,6.90
2019-03-31T14:20:13.159Z,7.63
2019-03-31T14:22:41.739Z,7.00
2019-03-31T14:25:10.440Z,7.27
2019-03-31T14:27:41.763Z,7.00
2019-03-31T14:30:13.194Z,6.83
2019-03-31T14:32:43.418Z,6.53
2019-03-31T14:35:15.084Z,7.60
2019-03-31T14:37:43.337Z,7.27
2019-03-31T14:40:16.425Z,7.73
2019-03-31T14:42:45.084Z,6.60
2019-03-31T14:45:14.842Z,6.87
2019-03-31T14:47:45.629Z,6.73
2019-03-31T14:50:17.264Z,7.30
2019-03-31T14:52:48.751Z,6.30
2019-03-31T14:55:24.513Z,6.80
2019-03-31T14:57:52.782Z,6.90
2019-03-31T15:00:21.329Z,7.07
2019-03-31T15:02:49.914Z,6.60
2019-03-31T15:05:18.613Z,7.20
2019-03-31T15:07:47.194Z,6.17
2019-03-31T15:10:17.113Z,6.97
2019-03-31T15:12:46.670Z,6.63
2019-03-31T15:15:15.265Z,7.03
2019-03-31T15:17:43.540Z,7.40
2019-03-31T15:20:12.434Z,7.07
2019-03-31T15:22:42.510Z,7.07
2019-03-31T15:25:11.221Z,7.63
2019-03-31T15:27:39.805Z,7.50
2019-03-31T15:30:08.990Z,7.57
2019-03-31T15:32:37.561Z,7.80
2019-03-31T15:35:08.618Z,8.23
2019-03-31T15:37:37.138Z,8.33
2019-03-31T15:40:07.140Z,7.90
2019-03-31T15:42:35.787Z,7.77
2019-03-31T15:45:04.985Z,7.77
2019-03-31T15:47:33.562Z,8.53
2019-03-31T15:50:02.118Z,8.53
2019-03-31T15:52:30.693Z,7.30
2019-03-31T15:54:59.241Z,7.53
2019-03-31T15:57:30.278Z,7.77
2019-03-31T15:59:58.838Z,7.10
2019-03-31T16:02:29.134Z,7.50
2019-03-31T16:04:57.680Z,7.40
2019-03-31T16:07:26.270Z,7.60
2019-03-31T16:09:54.823Z,6.67
2019-03-31T16:12:23.409Z,6.83
2019-03-31T16:14:51.957Z,6.50
2019-03-31T16:17:20.537Z,6.67
2019-03-31T16:19:49.093Z,6.90
2019-03-31T16:22:17.668Z,7.20
2019-03-31T16:24:47.866Z,6.90
2019-03-31T16:27:16.450Z,8.00
2019-03-31T16:29:44.999Z,7.20
2019-03-31T16:32:13.652Z,6.83
2019-03-31T16:34:42.201Z,7.27
2019-03-31T16:37:10.818Z,7.43
2019-03-31T16:39:39.401Z,6.77
2019-03-31T16:42:07.954Z,6.93
2019-03-31T16:44:36.538Z,6.83
2019-03-31T16:47:04.829Z,7.67
2019-03-31T16:49:33.408Z,8.30
2019-03-31T16:52:01.960Z,9.07
2019-03-31T16:54:30.613Z,9.47
2019-03-31T16:56:59.165Z,7.73
2019-03-31T16:59:27.818Z,8.10
2019-03-31T17:01:56.366Z,7.17
2019-03-31T17:04:24.613Z,8.63
2019-03-31T17:06:53.166Z,7.47
2019-03-31T17:09:21.744Z,6.80
2019-03-31T17:11:50.292Z,8.03
2019-03-31T17:14:18.873Z,8.83
2019-03-31T17:16:47.435Z,8.40
2019-03-31T17:19:16.184Z,7.80
2019-03-31T17:21:44.744Z,8.17
2019-03-31T17:24:13.397Z,7.50
2019-03-31T17:26:41.950Z,8.07
2019-03-31T17:29:10.538Z,7.73
2019-03-31T17:31:39.160Z,8.37
2019-03-31T17:34:07.746Z,8.27
2019-03-31T17:36:36.294Z,8.37
2019-03-31T17:39:07.094Z,7.40
2019-03-31T17:41:35.701Z,7.37
2019-03-31T17:44:04.517Z,7.97
2019-03-31T17:46:33.069Z,7.70
2019-03-31T17:49:01.650Z,8.70
2019-03-31T17:51:30.202Z,7.93
2019-03-31T17:53:58.783Z,7.00
2019-03-31T17:56:27.328Z,8.27
2019-03-31T17:58:55.582Z,9.07
2019-03-31T18:01:24.197Z,8.57
2019-03-31T18:03:52.844Z,7.90
2019-03-31T18:06:21.401Z,7.70
2019-03-31T18:08:49.986Z,7.60
2019-03-31T18:11:18.615Z,8.30
2019-03-31T18:13:47.253Z,9.27
2019-03-31T18:16:15.469Z,8.53
2019-03-31T18:18:44.029Z,8.33
2019-03-31T18:21:12.600Z,8.23
2019-03-31T18:23:41.159Z,8.20
2019-03-31T18:26:09.804Z,8.30
2019-03-31T18:28:38.349Z,8.47
2019-03-31T18:31:06.927Z,7.83
2019-03-31T18:33:35.474Z,7.43
2019-03-31T18:36:04.432Z,7.93
2019-03-31T18:38:32.982Z,7.83
2019-03-31T18:41:03.654Z,7.77
2019-03-31T18:43:31.752Z,7.57
2019-03-31T18:46:00.342Z,8.57
2019-03-31T18:48:28.885Z,8.17
2019-03-31T18:50:57.469Z,9.13
2019-03-31T18:53:36.749Z,9.47
2019-03-31T18:56:23.169Z,7.77
2019-03-31T18:58:59.540Z,7.50
2019-03-31T19:01:46.221Z,7.10
2019-03-31T19:04:28.697Z,6.87
2019-03-31T19:07:17.070Z,7.20
2019-03-31T19:10:03.536Z,6.37
2019-03-31T19:12:33.738Z,6.40
2019-03-31T19:15:10.208Z,6.33
2019-03-31T19:17:52.510Z,6.57
2019-03-31T19:20:28.448Z,6.17
2019-03-31T19:23:06.798Z,6.90
2019-03-31T19:25:39.924Z,6.63
2019-03-31T19:28:09.787Z,6.80
2019-03-31T19:30:46.347Z,6.73
2019-03-31T19:33:25.587Z,6.73
2019-03-31T19:36:04.582Z,7.17
2019-03-31T19:38:37.299Z,7.97
2019-03-31T19:41:13.034Z,7.67
2019-03-31T19:43:59.870Z,8.10
2019-03-31T19:46:30.092Z,8.73
2019-03-31T19:49:16.807Z,9.77
2019-03-31T19:51:51.098Z,10.80
2019-03-31T19:54:33.468Z,12.07
2019-03-31T19:57:03.703Z,13.03
2019-03-31T19:59:49.247Z,11.80
2019-03-31T20:02:19.470Z,12.77
2019-03-31T20:05:01.563Z,14.50
2019-03-31T20:07:31.776Z,15.00
2019-03-31T20:10:18.494Z,14.53
2019-03-31T20:12:57.218Z,14.70
2019-03-31T20:15:42.535Z,14.87
2019-03-31T20:18:18.569Z,16.00
2019-03-31T20:20:57.393Z,16.20
2019-03-31T20:23:39.653Z,16.07
2019-03-31T20:26:18.978Z,17.70
2019-03-31T20:28:48.909Z,16.77
2019-03-31T20:31:21.760Z,15.63
2019-03-31T20:34:04.223Z,18.77
2019-03-31T20:36:37.448Z,19.17
2019-03-31T20:39:10.081Z,18.67
2019-03-31T20:41:46.386Z,17.17
2019-03-31T20:44:14.937Z,19.10
2019-03-31T20:46:45.197Z,19.17
2019-03-31T20:49:13.756Z,19.50
2019-03-31T20:51:42.333Z,20.10
2019-03-31T20:54:10.882Z,20.07
2019-03-31T20:56:39.462Z,19.57
2019-03-31T20:59:08.024Z,20.13
2019-03-31T21:01:36.634Z,20.20
2019-03-31T21:04:05.222Z,20.60
2019-03-31T21:06:33.769Z,21.03
2019-03-31T21:09:02.426Z,19.87
2019-03-31T21:11:30.982Z,20.20
2019-03-31T21:13:59.571Z,17.23
2019-03-31T21:16:28.189Z,20.10
2019-03-31T21:18:56.697Z,20.60
2019-03-31T21:21:25.258Z,21.47
2019-03-31T21:23:53.837Z,20.90
2019-03-31T21:26:22.394Z,22.67
2019-03-31T21:28:50.973Z,18.73
2019-03-31T21:31:19.207Z,18.83
2019-03-31T21:33:47.452Z,18.50
2019-03-31T21:36:16.009Z,20.13
2019-03-31T21:38:44.592Z,21.40
2019-03-31T21:41:14.284Z,19.77
2019-03-31T21:43:43.029Z,17.07
2019-03-31T21:46:11.591Z,18.67
2019-03-31T21:48:40.169Z,22.27
2019-03-31T21:51:08.729Z,22.17
2019-03-31T21:53:37.317Z,19.27
2019-03-31T21:56:05.863Z,21.53
2019-03-31T21:58:34.441Z,21.33
2019-03-31T22:01:03.057Z,21.67
2019-03-31T22:03:31.638Z,21.17
2019-03-31T22:06:00.194Z,20.47
2019-03-31T22:08:28.776Z,20.90
2019-03-31T22:10:57.325Z,18.87
2019-03-31T22:13:25.911Z,20.53
2019-03-31T22:15:54.458Z,20.20
2019-03-31T22:18:23.513Z,20.07
2019-03-31T22:20:52.053Z,21.40
2019-03-31T22:23:20.633Z,22.20
2019-03-31T22:25:49.188Z,20.83
2019-03-31T22:28:17.765Z,20.87
2019-03-31T22:30:46.309Z,19.00
2019-03-31T22:33:14.861Z,20.93
2019-03-31T22:35:45.081Z,23.27
2019-03-31T22:38:13.642Z,21.70
2019-03-31T22:40:42.223Z,23.73
2019-03-31T22:43:10.765Z,23.30
2019-03-31T22:45:39.341Z,20.63
2019-03-31T22:48:07.892Z,22.20
2019-03-31T22:50:36.471Z,23.03
2019-03-31T22:53:05.019Z,24.03
2019-03-31T22:55:33.601Z,20.80
2019-03-31T22:58:02.159Z,23.20
2019-03-31T23:00:30.798Z,22.00
2019-03-31T23:02:59.358Z,24.70
2019-03-31T23:05:27.929Z,22.13
2019-03-31T23:07:56.475Z,24.53
2019-03-31T23:10:25.053Z,23.60
2019-03-31T23:12:53.600Z,23.50
2019-03-31T23:15:22.249Z,22.90
2019-03-31T23:17:50.803Z,22.40
2019-03-31T23:20:19.114Z,24.80
2019-03-31T23:22:47.662Z,22.80
2019-03-31T23:25:16.243Z,23.30
2019-03-31T23:27:44.797Z,23.57
2019-03-31T23:30:13.851Z,25.20
2019-03-31T23:32:42.392Z,24.00
2019-03-31T23:35:11.046Z,24.90
2019-03-31T23:37:39.598Z,24.87
2019-03-31T23:40:07.920Z,23.80
2019-03-31T23:42:36.537Z,23.77
2019-03-31T23:45:06.325Z,23.73
2019-03-31T23:47:34.879Z,23.60
2019-03-31T23:50:03.595Z,23.37
2019-03-31T23:52:32.146Z,25.37
2019-03-31T23:55:00.713Z,23.47
2019-03-31T23:57:42.590Z,23.60
